createdAt,value
2018-11-04T00:00:47.154Z,23.4
2018-11-04T00:10:46.366Z,23.4
2018-11-04T00:20:45.579Z,23.4
2018-11-04T00:30:44.794Z,23.4
2018-11-04T00:40:44.010Z,23.4
2018-11-04T00:50:43.225Z,23.4
2018-11-04T01:00:42.441Z,23.4
2018-11-04T01:10:41.657Z,23.4
2018-11-04T01:20:40.876Z,23.4
2018-11-04T01:30:40.091Z,23.4
2018-11-04T01:40:39.312Z,23.4
2018-11-04T01:50:38.517Z,23.4
2018-11-04T02:00:37.742Z,23.4
2018-11-04T02:10:36.952Z,23.4
2018-11-04T02:20:36.171Z,23.4
2018-11-04T02:30:35.386Z,23.4
2018-11-04T02:40:34.599Z,23.3
2018-11-04T02:50:33.810Z,23.3
2018-11-04T03:00:33.029Z,23.3
2018-11-04T03:10:32.243Z,23.3
2018-11-04T03:20:31.460Z,23.3
2018-11-04T03:30:30.677Z,23.3
2018-11-04T03:40:29.887Z,23.3
2018-11-04T03:50:29.099Z,23.3
2018-11-04T04:00:28.316Z,23.3
2018-11-04T04:10:27.532Z,23.3
2018-11-04T04:20:26.747Z,23.3
2018-11-04T04:30:25.957Z,23.3
2018-11-04T04:40:25.172Z,23.3
2018-11-04T04:50:24.393Z,23.2
2018-11-04T05:00:23.608Z,23.1
2018-11-04T05:10:22.824Z,23.2
2018-11-04T05:20:22.089Z,23.2
2018-11-04T05:30:21.259Z,23.2
2018-11-04T05:40:20.471Z,23.1
2018-11-04T05:50:19.734Z,23.1
2018-11-04T06:00:18.898Z,23.1
2018-11-04T06:10:18.117Z,23.3
2018-11-04T06:20:17.333Z,23.3
2018-11-04T06:30:16.549Z,23.3
2018-11-04T06:40:15.810Z,23.3
2018-11-04T06:50:14.974Z,23.4
2018-11-04T07:00:14.199Z,23.4
2018-11-04T07:10:13.409Z,23.3
2018-11-04T07:20:12.631Z,23.4
2018-11-04T07:30:11.841Z,23.4
2018-11-04T07:40:11.064Z,23.4
2018-11-04T07:50:10.278Z,23.3
2018-11-04T08:00:09.500Z,23.6
2018-11-04T08:10:08.718Z,23.6
2018-11-04T08:20:07.934Z,23.5
2018-11-04T08:30:07.147Z,23.8
2018-11-04T08:50:05.598Z,23.4
2018-11-04T09:00:04.868Z,23.4
2018-11-04T09:10:04.029Z,23.5
2018-11-04T09:20:03.246Z,23.8
2018-11-04T09:30:02.467Z,23.8
2018-11-04T09:40:01.693Z,23.8
2018-11-04T09:50:00.920Z,23.8
2018-11-04T10:00:00.116Z,23.8
2018-11-04T10:09:59.329Z,23.6
2018-11-04T10:19:58.690Z,23.8
2018-11-04T10:29:57.764Z,23.6
2018-11-04T10:39:56.997Z,23.7
2018-11-04T10:49:56.302Z,23.8
2018-11-04T10:59:55.417Z,23.8
2018-11-04T11:09:54.642Z,23.8
2018-11-04T11:19:53.852Z,23.8
2018-11-04T11:29:53.086Z,23.8
2018-11-04T11:39:52.289Z,23.8
2018-11-04T11:49:51.511Z,23.8
2018-11-04T11:59:50.735Z,23.6
2018-11-04T12:09:49.947Z,23.8
2018-11-04T12:19:49.165Z,23.7
2018-11-04T12:29:48.381Z,23.3
2018-11-04T12:39:47.599Z,23.6
2018-11-04T12:49:46.817Z,23.6
2018-11-04T12:59:46.033Z,23.6
2018-11-04T13:09:45.246Z,23.4
2018-11-04T13:19:44.469Z,23.6
2018-11-04T13:29:43.691Z,23.6
2018-11-04T13:39:42.911Z,23.5
2018-11-04T13:49:42.116Z,23.6
2018-11-04T13:59:41.334Z,23.6
2018-11-04T14:09:40.559Z,23.6
2018-11-04T14:19:39.771Z,23.6
2018-11-04T14:29:38.989Z,23.7
2018-11-04T14:39:38.205Z,23.6
2018-11-04T14:49:37.424Z,23.6
2018-11-04T14:59:36.643Z,23.5
2018-11-04T15:09:35.867Z,23.5
2018-11-04T15:19:35.083Z,23.5
2018-11-04T15:29:34.301Z,23.8
2018-11-04T15:39:33.520Z,23.5
2018-11-04T15:49:32.782Z,23.6
2018-11-04T15:59:31.954Z,23.3
2018-11-04T16:09:31.170Z,23.4
2018-11-04T16:19:30.387Z,23.4
2018-11-04T16:29:29.613Z,23.5
2018-11-04T16:39:28.824Z,23.4
2018-11-04T16:49:28.091Z,23.4
2018-11-04T16:59:27.262Z,23.5
2018-11-04T17:09:26.582Z,23.4
2018-11-04T17:19:25.695Z,23.5
2018-11-04T17:29:24.912Z,23.8
2018-11-04T17:39:24.137Z,23.5
2018-11-04T17:49:23.357Z,23.5
2018-11-04T17:59:22.567Z,23.4
2018-11-04T18:09:21.837Z,23.4
2018-11-04T18:19:21.008Z,23.4
2018-11-04T18:29:20.272Z,23.4
2018-11-04T18:39:19.436Z,23.4
2018-11-04T18:49:18.647Z,23.4
2018-11-04T18:59:17.957Z,23.4
2018-11-04T19:09:17.084Z,23.4
2018-11-04T19:19:16.300Z,23.4
2018-11-04T19:29:15.552Z,23.3
2018-11-04T19:39:14.739Z,23.4
2018-11-04T19:49:13.946Z,23.4
2018-11-04T19:59:13.228Z,23.4
2018-11-04T20:09:12.384Z,23.4
2018-11-04T20:19:11.734Z,23.4
2018-11-04T20:29:10.812Z,23.4
2018-11-04T20:39:10.019Z,23.4
2018-11-04T20:49:09.239Z,23.4
2018-11-04T20:59:08.455Z,23.4
2018-11-04T21:09:07.667Z,23.4
2018-11-04T21:19:06.895Z,23.4
2018-11-04T21:29:06.273Z,23.4
2018-11-04T21:39:05.315Z,23.4
2018-11-04T21:49:04.538Z,23.4
2018-11-04T21:59:03.743Z,23.4
2018-11-04T22:09:02.960Z,23.3
2018-11-04T22:19:02.170Z,23.3
2018-11-04T22:29:01.397Z,23.3
2018-11-04T22:39:00.603Z,23.3
2018-11-04T22:48:59.824Z,23.3
2018-11-04T22:58:59.029Z,23.3
2018-11-04T23:08:58.243Z,23.3
2018-11-04T23:18:57.463Z,23.3
2018-11-04T23:28:56.672Z,23.2
2018-11-04T23:38:55.892Z,23.2
2018-11-04T23:48:55.101Z,23.2
2018-11-04T23:58:54.319Z,23.2
